Delta Billie — WDE8059 — position and weather

sailwx.info

Track history (hours):
 
Tides and Currents Weather Stations Pressure Air Temp Water Temp Dewpoint Dewpoint Depression Visibility Wind Speed Wind Dir Waves Ship Positions

Delta Billie

Owner: Baydelta Maritime, San Francicso, CA. More information available from US FCC via Universal Licensing System and Coast Guard Vessel Documentation Center.

Last reported at 2014-Dec-19 19:33 UTC. Time now 2014-Dec-19 20:14 UTC.
Position N 38°04' W 122°15'.

Length 30 m; draft 5.5 m.

Type: Towing. MMSI: 367401030.

Date/timePositionNaut miles runAvg speedWind from/ knotsBaromVisibWave heightAir tempDewpointWater temp
2014-Dec-19 19:33N 38°04' W 122°15'4 3.7
2014-Dec-19 18:33N 38°03' W 122°19'4 4.4
2014-Dec-19 17:33N 38°01' W 122°24'6 5.6
2014-Dec-19 16:33N 37°56' W 122°27'6 5.8
2014-Dec-19 15:34N 37°50' W 122°24'5 5.2
2014-Dec-19 14:33N 37°48' W 122°30'0 0.3
2014-Dec-19 13:34N 37°48' W 122°29'5 5.3
2014-Dec-19 12:33N 37°52' W 122°26'3 3.4
2014-Dec-19 11:34N 37°56' W 122°25'0 0.0
2014-Dec-19 10:34N 37°56' W 122°25'5 4.9
2014-Dec-19 09:34N 38°00' W 122°24'8 2.6
2014-Dec-19 06:17N 38°05' W 122°15'1 1.7
2014-Dec-19 05:33N 38°04' W 122°14'3 0.1
2014-Dec-17 23:20N 38°03' W 122°11'6 7.3
2014-Dec-17 22:33N 38°03' W 122°18'7 7.4
2014-Dec-17 21:33N 37°59' W 122°26'5 5.0
2014-Dec-17 20:34N 37°55' W 122°22'0 0.1
2014-Dec-17 19:34N 37°55' W 122°22'0 0.0
2014-Dec-17 18:33N 37°55' W 122°22'1 0.8
2014-Dec-17 17:33N 37°54' W 122°22'7 7.2
2014-Dec-17 16:33N 38°01' W 122°23'6 5.7
2014-Dec-17 15:33N 38°04' W 122°16'5 4.3
2014-Dec-17 14:27N 38°02' W 122°22'910.5
2014-Dec-17 13:33N 37°53' W 122°25'5 4.7
2014-Dec-17 12:33N 37°48' W 122°24'0 0.0
2014-Dec-17 11:33N 37°48' W 122°24'0 0.0
2014-Dec-17 10:34N 37°48' W 122°24'0 0.0
2014-Dec-17 09:33N 37°48' W 122°24'0 0.0
2014-Dec-17 08:33N 37°48' W 122°24'0 0.0
2014-Dec-17 07:33N 37°48' W 122°24'0 0.0
2014-Dec-17 06:33N 37°48' W 122°24'0 0.0
2014-Dec-17 05:33N 37°48' W 122°24'0 0.0
2014-Dec-17 04:34N 37°48' W 122°24'4 3.7
2014-Dec-17 03:34N 37°48' W 122°19'3 3.0
2014-Dec-17 02:33N 37°45' W 122°21'3 3.4
2014-Dec-17 01:33N 37°48' W 122°24'0 0.0
2014-Dec-17 00:34N 37°48' W 122°24'0 0.0
2014-Dec-16 23:34N 37°48' W 122°24'0 0.0
2014-Dec-16 22:33N 37°48' W 122°24'6 6.2
2014-Dec-16 21:34N 37°54' W 122°25'1 1.4
2014-Dec-16 20:33N 37°56' W 122°25'0 0.0
2014-Dec-16 19:34N 37°56' W 122°25'0 0.0
2014-Dec-16 18:33N 37°56' W 122°25'0 0.0
2014-Dec-16 17:33N 37°56' W 122°25'0 0.0
2014-Dec-16 16:33N 37°56' W 122°25'0 0.0
2014-Dec-16 15:34N 37°56' W 122°25'0 0.0
2014-Dec-16 14:34N 37°56' W 122°25'0 0.0
2014-Dec-16 13:33N 37°56' W 122°25'0 0.0
2014-Dec-16 12:33N 37°56' W 122°25'0 0.0
2014-Dec-16 11:33N 37°56' W 122°25'0 0.0
2014-Dec-16 10:33N 37°56' W 122°25'0 0.0
2014-Dec-16 09:34N 37°56' W 122°25'0 0.0
2014-Dec-16 08:34N 37°56' W 122°25'0 0.0
2014-Dec-16 07:33N 37°56' W 122°25'0 0.0
2014-Dec-16 06:33N 37°56' W 122°25'2 1.5
2014-Dec-16 05:33N 37°57' W 122°26'10 9.6
2014-Dec-16 04:33N 38°03' W 122°17'1 0.4
2014-Dec-16 01:22N 38°04' W 122°15'5 0.7
2014-Dec-15 18:11N 38°02' W 122°09'1 0.1
2014-Dec-15 00:32N 38°02' W 122°08'4 3.6
2014-Dec-14 23:27N 38°04' W 122°12'3 2.9
2014-Dec-14 22:33N 38°04' W 122°16'5 4.3
2014-Dec-14 21:16N 38°02' W 122°09'1 0.0
2014-Dec-13 20:07N 38°02' W 122°08'4 0.1
2014-Dec-12 17:34N 38°03' W 122°13'2 2.3
2014-Dec-12 16:33N 38°04' W 122°16'1 0.9
2014-Dec-12 15:34N 38°03' W 122°15'0 0.0
2014-Dec-12 14:34N 38°03' W 122°15'0 0.0
2014-Dec-12 13:33N 38°03' W 122°15'5 3.9
2014-Dec-12 12:20N 38°02' W 122°09'0 0.0
2014-Dec-11 13:33N 38°02' W 122°09'1 0.3
2014-Dec-11 10:21N 38°02' W 122°08'4 0.3
2014-Dec-10 21:24N 38°04' W 122°03'9 2.6
2014-Dec-10 18:06N 38°04' W 122°14'5 8.7
2014-Dec-10 17:33N 38°03' W 122°20'8 8.2
2014-Dec-10 16:34N 37°56' W 122°26'9 9.3
2014-Dec-10 15:33N 37°48' W 122°20'1 1.5
2014-Dec-10 14:33N 37°48' W 122°18'3 3.2
2014-Dec-10 13:33N 37°47' W 122°22'1 1.4
2014-Dec-10 12:33N 37°46' W 122°23'0 0.1
2014-Dec-10 11:34N 37°46' W 122°23'0 0.0
2014-Dec-10 10:34N 37°46' W 122°23'0 0.0
2014-Dec-10 09:33N 37°46' W 122°23'0 0.0
2014-Dec-10 08:34N 37°46' W 122°23'0 0.0
2014-Dec-10 07:33N 37°46' W 122°23'0 0.0
2014-Dec-10 06:33N 37°46' W 122°23'0 0.0
2014-Dec-10 05:34N 37°46' W 122°23'0 0.3
2014-Dec-10 04:33N 37°46' W 122°23'2 2.3
2014-Dec-10 03:33N 37°48' W 122°24'0 0.0
2014-Dec-10 02:33N 37°48' W 122°24'2 2.3
2014-Dec-10 01:34N 37°48' W 122°21'2 1.6
2014-Dec-10 00:33N 37°49' W 122°19'4 3.8
2014-Dec-09 23:34N 37°48' W 122°24'0 0.0
2014-Dec-09 22:33N 37°48' W 122°24'0 0.0
2014-Dec-09 21:33N 37°48' W 122°24'0 0.0
2014-Dec-09 20:34N 37°48' W 122°24'6 6.1
2014-Dec-09 19:33N 37°54' W 122°25'  
Track history (hours):
 
Tides and Currents Weather Stations Pressure Air Temp Water Temp Dewpoint Dewpoint Depression Visibility Wind Speed Wind Dir Waves Ship Positions

Delta Billie

Owner: Baydelta Maritime, San Francicso, CA. More information available from US FCC via Universal Licensing System and Coast Guard Vessel Documentation Center.

Last reported at 2014-Dec-19 19:33 UTC. Time now 2014-Dec-19 20:14 UTC.
Position N 38°04' W 122°15'.

Length 30 m; draft 5.5 m.

Type: Towing. MMSI: 367401030.

Date/timePositionNaut miles runAvg speedWind from/ knotsBaromVisibWave heightAir tempDewpointWater temp
2014-Dec-19 19:33N 38°04' W 122°15'4 3.7
2014-Dec-19 18:33N 38°03' W 122°19'4 4.4
2014-Dec-19 17:33N 38°01' W 122°24'6 5.6
2014-Dec-19 16:33N 37°56' W 122°27'6 5.8
2014-Dec-19 15:34N 37°50' W 122°24'5 5.2
2014-Dec-19 14:33N 37°48' W 122°30'0 0.3
2014-Dec-19 13:34N 37°48' W 122°29'5 5.3
2014-Dec-19 12:33N 37°52' W 122°26'3 3.4
2014-Dec-19 11:34N 37°56' W 122°25'0 0.0
2014-Dec-19 10:34N 37°56' W 122°25'5 4.9
2014-Dec-19 09:34N 38°00' W 122°24'8 2.6
2014-Dec-19 06:17N 38°05' W 122°15'1 1.7
2014-Dec-19 05:33N 38°04' W 122°14'3 0.1
2014-Dec-17 23:20N 38°03' W 122°11'6 7.3
2014-Dec-17 22:33N 38°03' W 122°18'7 7.4
2014-Dec-17 21:33N 37°59' W 122°26'5 5.0
2014-Dec-17 20:34N 37°55' W 122°22'0 0.1
2014-Dec-17 19:34N 37°55' W 122°22'0 0.0
2014-Dec-17 18:33N 37°55' W 122°22'1 0.8
2014-Dec-17 17:33N 37°54' W 122°22'7 7.2
2014-Dec-17 16:33N 38°01' W 122°23'6 5.7
2014-Dec-17 15:33N 38°04' W 122°16'5 4.3
2014-Dec-17 14:27N 38°02' W 122°22'910.5
2014-Dec-17 13:33N 37°53' W 122°25'5 4.7
2014-Dec-17 12:33N 37°48' W 122°24'0 0.0
2014-Dec-17 11:33N 37°48' W 122°24'0 0.0
2014-Dec-17 10:34N 37°48' W 122°24'0 0.0
2014-Dec-17 09:33N 37°48' W 122°24'0 0.0
2014-Dec-17 08:33N 37°48' W 122°24'0 0.0
2014-Dec-17 07:33N 37°48' W 122°24'0 0.0
2014-Dec-17 06:33N 37°48' W 122°24'0 0.0
2014-Dec-17 05:33N 37°48' W 122°24'0 0.0
2014-Dec-17 04:34N 37°48' W 122°24'4 3.7
2014-Dec-17 03:34N 37°48' W 122°19'3 3.0
2014-Dec-17 02:33N 37°45' W 122°21'3 3.4
2014-Dec-17 01:33N 37°48' W 122°24'0 0.0
2014-Dec-17 00:34N 37°48' W 122°24'0 0.0
2014-Dec-16 23:34N 37°48' W 122°24'0 0.0
2014-Dec-16 22:33N 37°48' W 122°24'6 6.2
2014-Dec-16 21:34N 37°54' W 122°25'1 1.4
2014-Dec-16 20:33N 37°56' W 122°25'0 0.0
2014-Dec-16 19:34N 37°56' W 122°25'0 0.0
2014-Dec-16 18:33N 37°56' W 122°25'0 0.0
2014-Dec-16 17:33N 37°56' W 122°25'0 0.0
2014-Dec-16 16:33N 37°56' W 122°25'0 0.0
2014-Dec-16 15:34N 37°56' W 122°25'0 0.0
2014-Dec-16 14:34N 37°56' W 122°25'0 0.0
2014-Dec-16 13:33N 37°56' W 122°25'0 0.0
2014-Dec-16 12:33N 37°56' W 122°25'0 0.0
2014-Dec-16 11:33N 37°56' W 122°25'0 0.0
2014-Dec-16 10:33N 37°56' W 122°25'0 0.0
2014-Dec-16 09:34N 37°56' W 122°25'0 0.0
2014-Dec-16 08:34N 37°56' W 122°25'0 0.0
2014-Dec-16 07:33N 37°56' W 122°25'0 0.0
2014-Dec-16 06:33N 37°56' W 122°25'2 1.5
2014-Dec-16 05:33N 37°57' W 122°26'10 9.6
2014-Dec-16 04:33N 38°03' W 122°17'1 0.4
2014-Dec-16 01:22N 38°04' W 122°15'5 0.7
2014-Dec-15 18:11N 38°02' W 122°09'1 0.1
2014-Dec-15 00:32N 38°02' W 122°08'4 3.6
2014-Dec-14 23:27N 38°04' W 122°12'3 2.9
2014-Dec-14 22:33N 38°04' W 122°16'5 4.3
2014-Dec-14 21:16N 38°02' W 122°09'1 0.0
2014-Dec-13 20:07N 38°02' W 122°08'4 0.1
2014-Dec-12 17:34N 38°03' W 122°13'2 2.3
2014-Dec-12 16:33N 38°04' W 122°16'1 0.9
2014-Dec-12 15:34N 38°03' W 122°15'0 0.0
2014-Dec-12 14:34N 38°03' W 122°15'0 0.0
2014-Dec-12 13:33N 38°03' W 122°15'5 3.9
2014-Dec-12 12:20N 38°02' W 122°09'0 0.0
2014-Dec-11 13:33N 38°02' W 122°09'1 0.3
2014-Dec-11 10:21N 38°02' W 122°08'4 0.3
2014-Dec-10 21:24N 38°04' W 122°03'9 2.6
2014-Dec-10 18:06N 38°04' W 122°14'5 8.7
2014-Dec-10 17:33N 38°03' W 122°20'8 8.2
2014-Dec-10 16:34N 37°56' W 122°26'9 9.3
2014-Dec-10 15:33N 37°48' W 122°20'1 1.5
2014-Dec-10 14:33N 37°48' W 122°18'3 3.2
2014-Dec-10 13:33N 37°47' W 122°22'1 1.4
2014-Dec-10 12:33N 37°46' W 122°23'0 0.1
2014-Dec-10 11:34N 37°46' W 122°23'0 0.0
2014-Dec-10 10:34N 37°46' W 122°23'0 0.0
2014-Dec-10 09:33N 37°46' W 122°23'0 0.0
2014-Dec-10 08:34N 37°46' W 122°23'0 0.0
2014-Dec-10 07:33N 37°46' W 122°23'0 0.0
2014-Dec-10 06:33N 37°46' W 122°23'0 0.0
2014-Dec-10 05:34N 37°46' W 122°23'0 0.3
2014-Dec-10 04:33N 37°46' W 122°23'2 2.3
2014-Dec-10 03:33N 37°48' W 122°24'0 0.0
2014-Dec-10 02:33N 37°48' W 122°24'2 2.3
2014-Dec-10 01:34N 37°48' W 122°21'2 1.6
2014-Dec-10 00:33N 37°49' W 122°19'4 3.8
2014-Dec-09 23:34N 37°48' W 122°24'0 0.0
2014-Dec-09 22:33N 37°48' W 122°24'0 0.0
2014-Dec-09 21:33N 37°48' W 122°24'0 0.0
2014-Dec-09 20:34N 37°48' W 122°24'6 6.1
2014-Dec-09 19:33N 37°54' W 122°25'  

Dump ship's entire track history